createdAt,value
2022-10-26T00:01:25.812Z,3.47
2022-10-26T00:04:27.516Z,3.50
2022-10-26T00:07:29.928Z,2.88
2022-10-26T00:10:33.536Z,3.50
2022-10-26T00:13:35.664Z,3.00
2022-10-26T00:16:37.229Z,3.95
2022-10-26T00:19:38.984Z,4.57
2022-10-26T00:22:43.333Z,4.40
2022-10-26T00:25:45.062Z,3.95
2022-10-26T00:28:46.633Z,3.70
2022-10-26T00:31:48.217Z,3.63
2022-10-26T00:34:49.754Z,4.03
2022-10-26T00:37:56.130Z,3.45
2022-10-26T00:44:42.257Z,4.07
2022-10-26T00:47:48.398Z,3.60
2022-10-26T00:50:51.701Z,3.70
2022-10-26T00:53:55.012Z,4.15
2022-10-26T00:56:56.589Z,3.92
2022-10-26T00:59:59.588Z,3.50
2022-10-26T01:03:05.348Z,4.20
2022-10-26T01:06:08.293Z,3.83
2022-10-26T01:09:10.770Z,4.20
2022-10-26T01:12:12.400Z,4.05
2022-10-26T01:15:14.316Z,3.53
2022-10-26T01:18:33.563Z,3.70
2022-10-26T01:21:54.329Z,4.28
2022-10-26T01:28:27.040Z,3.55
2022-10-26T01:31:34.455Z,3.88
2022-10-26T01:34:47.629Z,4.13
2022-10-26T01:37:57.578Z,3.33
2022-10-26T01:41:29.473Z,3.63
2022-10-26T01:44:42.287Z,4.15
2022-10-26T01:47:46.895Z,3.88
2022-10-26T01:50:51.728Z,3.88
2022-10-26T01:53:53.368Z,3.50
2022-10-26T01:57:00.315Z,4.28
2022-10-26T02:00:08.207Z,5.55
2022-10-26T02:03:22.963Z,4.28
2022-10-26T02:06:39.643Z,3.92
2022-10-26T02:09:50.343Z,4.25
2022-10-26T02:16:21.767Z,3.25
2022-10-26T02:19:47.999Z,4.72
2022-10-26T02:22:52.580Z,4.72
2022-10-26T02:25:58.473Z,5.20
2022-10-26T02:29:04.927Z,4.80
2022-10-26T02:32:08.275Z,5.22
2022-10-26T02:35:11.607Z,4.72
2022-10-26T02:38:14.432Z,4.80
2022-10-26T02:41:17.935Z,4.35
2022-10-26T02:44:27.374Z,5.57
2022-10-26T02:47:29.671Z,4.55
2022-10-26T02:50:43.260Z,4.80
2022-10-26T02:54:06.280Z,4.38
2022-10-26T02:57:14.904Z,3.70
2022-10-26T03:00:19.015Z,3.80
2022-10-26T03:03:21.550Z,4.70
2022-10-26T03:06:23.679Z,5.15
2022-10-26T03:09:25.776Z,5.28
2022-10-26T03:12:27.423Z,5.03
2022-10-26T03:15:29.087Z,4.75
2022-10-26T03:18:30.585Z,5.10
2022-10-26T03:21:32.321Z,5.00
2022-10-26T03:24:33.845Z,4.70
2022-10-26T03:27:35.424Z,5.20
2022-10-26T03:30:36.963Z,5.10
2022-10-26T03:36:45.047Z,5.15
2022-10-26T03:39:46.574Z,5.28
2022-10-26T03:42:48.585Z,5.40
2022-10-26T03:45:50.304Z,5.40
2022-10-26T03:48:51.859Z,5.20
2022-10-26T03:51:53.376Z,5.10
2022-10-26T03:54:54.918Z,5.25
2022-10-26T03:57:56.523Z,5.63
2022-10-26T04:00:58.083Z,3.90
2022-10-26T04:03:59.628Z,4.40
2022-10-26T04:07:01.235Z,3.10
2022-10-26T04:10:03.077Z,2.10
2022-10-26T04:13:04.618Z,2.88
2022-10-26T04:16:06.277Z,2.30
2022-10-26T04:19:07.983Z,2.40
2022-10-26T04:22:09.534Z,2.33
2022-10-26T04:25:12.236Z,2.10
2022-10-26T04:28:14.499Z,2.13
2022-10-26T04:31:16.143Z,1.73
2022-10-26T04:34:17.750Z,1.88
2022-10-26T04:37:19.331Z,1.55
2022-10-26T04:40:20.812Z,2.15
2022-10-26T04:43:22.330Z,1.58
2022-10-26T04:46:23.838Z,2.03
2022-10-26T04:49:25.369Z,1.45
2022-10-26T04:52:26.893Z,1.52
2022-10-26T04:55:28.615Z,1.95
2022-10-26T04:58:30.650Z,1.98
2022-10-26T05:01:32.644Z,2.10
2022-10-26T05:04:34.226Z,1.70
2022-10-26T05:07:35.737Z,1.65
2022-10-26T05:10:37.238Z,1.63
2022-10-26T05:13:38.893Z,1.98
2022-10-26T05:16:40.510Z,1.60
2022-10-26T05:19:42.208Z,1.50
2022-10-26T05:22:43.746Z,1.55
2022-10-26T05:25:46.145Z,1.80
2022-10-26T05:28:47.818Z,1.70
2022-10-26T05:31:49.322Z,1.63
2022-10-26T05:34:50.849Z,1.40
2022-10-26T05:37:53.411Z,1.70
2022-10-26T05:40:55.266Z,1.30
2022-10-26T05:43:56.866Z,1.50
2022-10-26T05:46:58.351Z,1.95
2022-10-26T05:49:59.875Z,1.45
2022-10-26T05:53:01.762Z,1.55
2022-10-26T05:56:06.056Z,1.70
2022-10-26T05:59:14.920Z,1.70
2022-10-26T06:02:44.564Z,1.45
2022-10-26T06:05:57.935Z,1.80
2022-10-26T06:08:59.713Z,1.70
2022-10-26T06:12:01.729Z,1.38
2022-10-26T06:15:04.065Z,1.67
2022-10-26T06:18:28.199Z,1.30
2022-10-26T06:21:56.689Z,1.60
2022-10-26T06:25:10.401Z,1.40
2022-10-26T06:28:36.613Z,1.40
2022-10-26T06:31:38.284Z,1.30
2022-10-26T06:34:45.758Z,1.02
2022-10-26T06:37:48.943Z,1.00
2022-10-26T06:40:55.851Z,1.30
2022-10-26T06:43:57.695Z,1.17
2022-10-26T06:47:21.186Z,1.10
2022-10-26T06:50:42.372Z,1.08
2022-10-26T06:53:57.134Z,1.10
2022-10-26T06:56:58.900Z,1.02
2022-10-26T07:00:04.727Z,1.27
2022-10-26T07:03:06.317Z,1.30
2022-10-26T07:06:09.703Z,1.30
2022-10-26T07:09:11.284Z,1.20
2022-10-26T07:12:12.849Z,1.35
2022-10-26T07:15:14.656Z,1.30
2022-10-26T07:18:16.258Z,1.15
2022-10-26T07:21:17.785Z,1.42
2022-10-26T07:24:19.341Z,1.10
2022-10-26T07:27:20.875Z,1.15
2022-10-26T07:30:22.389Z,1.45
2022-10-26T07:33:23.944Z,1.30
2022-10-26T07:36:25.487Z,1.60
2022-10-26T07:39:27.581Z,1.73
2022-10-26T07:42:29.178Z,1.75
2022-10-26T07:45:31.103Z,1.55
2022-10-26T07:48:32.642Z,1.35
2022-10-26T07:51:34.386Z,1.85
2022-10-26T07:54:35.919Z,1.60
2022-10-26T07:57:38.412Z,1.95
2022-10-26T08:00:40.123Z,1.77
2022-10-26T08:03:42.051Z,1.90
2022-10-26T08:06:43.885Z,2.28
2022-10-26T08:09:45.388Z,1.70
2022-10-26T08:12:46.939Z,1.63
2022-10-26T08:15:48.550Z,1.75
2022-10-26T08:18:52.831Z,1.45
2022-10-26T08:21:54.371Z,1.70
2022-10-26T08:24:55.921Z,1.95
2022-10-26T08:28:01.883Z,1.70
2022-10-26T08:31:03.729Z,1.67
2022-10-26T08:34:05.305Z,1.60
2022-10-26T08:37:06.882Z,1.60
2022-10-26T08:40:15.527Z,1.85
2022-10-26T08:43:24.108Z,1.98
2022-10-26T08:46:30.330Z,1.92
2022-10-26T08:49:40.975Z,1.67
2022-10-26T08:52:50.531Z,1.90
2022-10-26T08:55:59.383Z,1.60
2022-10-26T08:59:17.504Z,1.85
2022-10-26T09:02:20.328Z,1.70
2022-10-26T09:05:42.215Z,1.77
2022-10-26T09:09:10.988Z,2.10
2022-10-26T09:12:34.039Z,1.83
2022-10-26T09:15:54.265Z,1.90
2022-10-26T09:19:25.603Z,1.90
2022-10-26T09:22:42.912Z,2.22
2022-10-26T09:25:49.764Z,1.80
2022-10-26T09:28:51.719Z,1.83
2022-10-26T09:31:55.964Z,2.10
2022-10-26T09:35:21.735Z,1.80
2022-10-26T09:38:31.347Z,1.80
2022-10-26T09:41:42.077Z,2.00
2022-10-26T09:44:54.898Z,2.17
2022-10-26T09:48:18.475Z,1.80
2022-10-26T09:51:20.100Z,2.83
2022-10-26T09:54:21.869Z,2.20
2022-10-26T09:57:24.515Z,2.30
2022-10-26T10:00:28.828Z,2.10
2022-10-26T10:03:32.228Z,1.95
2022-10-26T10:06:33.726Z,2.80
2022-10-26T10:09:35.262Z,3.15
2022-10-26T10:12:36.861Z,2.28
2022-10-26T10:15:38.403Z,2.58
2022-10-26T10:18:42.127Z,3.50
2022-10-26T10:21:49.912Z,2.47
2022-10-26T10:24:57.218Z,2.35
2022-10-26T10:27:58.900Z,2.67
2022-10-26T10:31:06.059Z,2.70
2022-10-26T10:34:17.621Z,2.63
2022-10-26T10:37:41.477Z,2.38
2022-10-26T10:40:51.217Z,2.70
2022-10-26T10:44:35.008Z,3.42
2022-10-26T10:47:37.704Z,2.83
2022-10-26T10:50:57.718Z,3.10
2022-10-26T10:53:59.366Z,2.70
2022-10-26T10:57:25.351Z,3.05
2022-10-26T11:00:27.498Z,2.63
2022-10-26T11:03:52.222Z,2.92
2022-10-26T11:06:59.367Z,3.03
2022-10-26T11:10:03.869Z,3.63
2022-10-26T11:13:15.402Z,3.40
2022-10-26T11:16:26.614Z,3.33
2022-10-26T11:19:45.251Z,3.75
2022-10-26T11:22:54.250Z,2.72
2022-10-26T11:26:00.858Z,3.22
2022-10-26T11:29:07.300Z,3.47
2022-10-26T11:32:22.688Z,3.13
2022-10-26T11:35:37.740Z,3.08
2022-10-26T11:38:57.866Z,3.10
2022-10-26T11:45:22.687Z,3.15
2022-10-26T11:48:32.326Z,3.43
2022-10-26T11:51:40.084Z,3.23
2022-10-26T11:54:55.320Z,3.08
2022-10-26T11:57:58.551Z,2.75
2022-10-26T12:01:08.972Z,2.75
2022-10-26T12:07:20.086Z,3.05
2022-10-26T12:10:31.761Z,2.97
2022-10-26T12:13:58.610Z,2.72
2022-10-26T12:17:00.175Z,2.40
2022-10-26T12:20:07.413Z,2.40
2022-10-26T12:23:16.138Z,2.50
2022-10-26T12:26:24.959Z,2.20
2022-10-26T12:29:36.565Z,2.35
2022-10-26T12:32:40.317Z,2.20
2022-10-26T12:35:45.863Z,1.90
2022-10-26T12:38:47.621Z,2.05
2022-10-26T12:42:10.581Z,1.80
2022-10-26T12:45:20.819Z,1.90
2022-10-26T12:48:45.656Z,2.10
2022-10-26T12:51:47.230Z,2.08
2022-10-26T12:55:13.314Z,1.90
2022-10-26T12:58:17.825Z,1.77
2022-10-26T13:01:26.642Z,1.85
2022-10-26T13:04:49.481Z,2.00
2022-10-26T13:07:51.510Z,1.60
2022-10-26T13:11:15.439Z,1.90
2022-10-26T13:14:24.086Z,1.73
2022-10-26T13:17:29.317Z,4.18
2022-10-26T13:20:31.889Z,3.58
2022-10-26T13:23:36.717Z,2.08
2022-10-26T13:27:16.968Z,2.60
2022-10-26T13:30:43.253Z,1.90
2022-10-26T13:33:46.247Z,1.90
2022-10-26T13:37:04.122Z,2.08
2022-10-26T13:40:16.576Z,1.80
2022-10-26T13:43:25.198Z,2.05
2022-10-26T13:46:28.117Z,1.80
2022-10-26T13:49:40.240Z,1.75
2022-10-26T13:52:45.082Z,1.85
2022-10-26T13:56:16.318Z,2.22
2022-10-26T14:02:27.906Z,1.80
2022-10-26T14:05:29.642Z,1.95
2022-10-26T14:08:31.618Z,1.90
2022-10-26T14:11:53.267Z,1.70
2022-10-26T14:15:06.643Z,1.70
2022-10-26T14:18:24.981Z,1.70
2022-10-26T14:21:26.922Z,1.55
2022-10-26T14:24:46.380Z,1.63
2022-10-26T14:27:49.362Z,1.40
2022-10-26T14:30:51.587Z,1.73
2022-10-26T14:33:54.590Z,2.08
2022-10-26T14:37:02.958Z,1.90
2022-10-26T14:40:05.740Z,1.73
2022-10-26T14:43:12.784Z,1.52
2022-10-26T14:46:19.707Z,1.48
2022-10-26T14:49:27.184Z,1.52
2022-10-26T14:52:34.422Z,1.58
2022-10-26T14:55:50.985Z,1.48
2022-10-26T14:58:53.634Z,1.65
2022-10-26T15:02:12.945Z,1.70
2022-10-26T15:05:35.688Z,1.30
2022-10-26T15:08:52.571Z,1.80
2022-10-26T15:11:57.844Z,1.60
2022-10-26T15:15:14.705Z,1.55
2022-10-26T15:18:42.706Z,1.40
2022-10-26T15:21:48.569Z,1.92
2022-10-26T15:24:54.193Z,1.90
2022-10-26T15:28:18.771Z,1.70
2022-10-26T15:31:20.252Z,1.80
2022-10-26T15:34:23.531Z,1.83
2022-10-26T15:37:25.143Z,2.00
2022-10-26T15:40:28.923Z,2.03
2022-10-26T15:43:30.893Z,1.80
2022-10-26T15:46:36.785Z,2.00
2022-10-26T15:49:38.312Z,2.00
2022-10-26T15:52:39.900Z,2.15
2022-10-26T15:55:41.476Z,2.58
2022-10-26T15:58:43.352Z,2.30
2022-10-26T16:01:45.399Z,2.08
2022-10-26T16:04:47.195Z,2.08
2022-10-26T16:07:49.200Z,2.10
2022-10-26T16:10:51.358Z,1.80
2022-10-26T16:13:52.892Z,1.98
2022-10-26T16:16:54.402Z,2.15
2022-10-26T16:19:56.012Z,1.80
2022-10-26T16:22:59.392Z,6.38
2022-10-26T16:26:03.511Z,2.80
2022-10-26T16:29:05.104Z,3.03
2022-10-26T16:32:06.647Z,3.25
2022-10-26T16:35:09.181Z,2.70
2022-10-26T16:38:10.805Z,2.03
2022-10-26T16:41:14.725Z,4.70
2022-10-26T16:44:16.280Z,3.70
2022-10-26T16:47:18.078Z,2.08
2022-10-26T16:50:21.943Z,2.20
2022-10-26T16:53:23.815Z,2.45
2022-10-26T16:56:28.548Z,2.50
2022-10-26T16:59:30.500Z,2.33
2022-10-26T17:02:32.168Z,2.22
2022-10-26T17:05:33.861Z,1.95
2022-10-26T17:08:36.416Z,2.00
2022-10-26T17:11:38.381Z,1.98
2022-10-26T17:14:39.889Z,1.60
2022-10-26T17:17:41.402Z,2.10
2022-10-26T17:20:51.195Z,1.88
2022-10-26T17:23:52.768Z,1.85
2022-10-26T17:26:54.474Z,1.60
2022-10-26T17:29:56.277Z,1.88
2022-10-26T17:32:58.012Z,2.00
2022-10-26T17:35:59.621Z,2.95
2022-10-26T17:39:01.275Z,2.97
2022-10-26T17:42:03.449Z,2.38
2022-10-26T17:45:05.334Z,2.13
2022-10-26T17:48:06.858Z,2.80
2022-10-26T17:51:15.684Z,2.65
2022-10-26T17:57:23.752Z,2.10
2022-10-26T18:00:25.289Z,2.60
2022-10-26T18:03:26.885Z,2.20
2022-10-26T18:06:28.448Z,2.47
2022-10-26T18:09:30.002Z,2.28
2022-10-26T18:12:32.431Z,2.75
2022-10-26T18:15:35.950Z,2.40
2022-10-26T18:18:38.787Z,3.33
2022-10-26T18:21:40.353Z,2.80
2022-10-26T18:24:41.886Z,2.58
2022-10-26T18:27:43.408Z,2.45
2022-10-26T18:30:45.002Z,2.33
2022-10-26T18:33:47.055Z,2.17
2022-10-26T18:36:48.686Z,2.53
2022-10-26T18:39:50.201Z,2.85
2022-10-26T18:42:51.723Z,2.58
2022-10-26T18:46:01.684Z,2.30
2022-10-26T18:49:05.116Z,2.50
2022-10-26T18:52:06.644Z,2.30
2022-10-26T18:55:08.872Z,3.15
2022-10-26T18:58:11.628Z,2.50
2022-10-26T19:01:21.832Z,2.33
2022-10-26T19:04:23.484Z,2.70
2022-10-26T19:07:25.240Z,2.50
2022-10-26T19:10:27.498Z,2.85
2022-10-26T19:13:29.088Z,2.55
2022-10-26T19:16:45.429Z,3.00
2022-10-26T19:19:47.796Z,2.83
2022-10-26T19:22:53.263Z,3.30
2022-10-26T19:25:57.866Z,3.22
2022-10-26T19:29:02.027Z,3.15
2022-10-26T19:32:03.715Z,2.90
2022-10-26T19:35:05.671Z,3.42
2022-10-26T19:38:07.210Z,3.42
2022-10-26T19:41:12.319Z,3.67
2022-10-26T19:44:15.275Z,4.03
2022-10-26T19:47:17.426Z,4.95
2022-10-26T19:50:18.952Z,4.25
2022-10-26T19:53:21.888Z,4.55
2022-10-26T19:56:23.411Z,6.60
2022-10-26T19:59:25.687Z,5.18
2022-10-26T20:02:27.374Z,4.70
2022-10-26T20:05:28.893Z,5.03
2022-10-26T20:08:30.407Z,4.95
2022-10-26T20:11:32.515Z,4.53
2022-10-26T20:14:34.272Z,4.90
2022-10-26T20:17:35.946Z,4.63
2022-10-26T20:20:53.614Z,4.72
2022-10-26T20:24:45.594Z,4.93
2022-10-26T20:27:37.312Z,5.00
2022-10-26T20:30:39.504Z,4.20
2022-10-26T20:33:41.195Z,4.75
2022-10-26T20:36:42.735Z,4.97
2022-10-26T20:39:44.710Z,4.75
2022-10-26T20:42:46.923Z,5.28
2022-10-26T20:45:49.037Z,4.60
2022-10-26T20:48:51.990Z,5.10
2022-10-26T20:52:21.263Z,3.85
2022-10-26T20:55:47.640Z,4.32
2022-10-26T20:59:01.067Z,4.18
2022-10-26T21:02:02.785Z,3.92
2022-10-26T21:05:04.780Z,4.10
2022-10-26T21:08:06.323Z,3.58
2022-10-26T21:11:07.939Z,3.45
2022-10-26T21:14:10.959Z,3.45
2022-10-26T21:17:12.519Z,3.65
2022-10-26T21:20:14.142Z,3.22
2022-10-26T21:23:15.666Z,3.95
2022-10-26T21:26:17.357Z,2.85
2022-10-26T21:29:19.247Z,3.20
2022-10-26T21:32:20.787Z,2.85
2022-10-26T21:35:22.454Z,3.33
2022-10-26T21:38:24.033Z,3.35
2022-10-26T21:44:41.016Z,3.63
2022-10-26T21:47:43.327Z,4.32
2022-10-26T21:50:44.932Z,4.80
2022-10-26T21:53:47.449Z,4.20
2022-10-26T21:56:48.991Z,3.60
2022-10-26T21:59:50.564Z,4.00
2022-10-26T22:02:52.697Z,3.88
2022-10-26T22:05:54.665Z,3.60
2022-10-26T22:08:56.244Z,3.28
2022-10-26T22:11:57.802Z,3.58
2022-10-26T22:14:59.329Z,3.08
2022-10-26T22:18:01.081Z,3.03
2022-10-26T22:21:03.692Z,3.67
2022-10-26T22:24:06.427Z,3.38
2022-10-26T22:27:08.042Z,3.22
2022-10-26T22:30:10.234Z,3.20
2022-10-26T22:33:13.178Z,3.15
2022-10-26T22:36:15.935Z,3.47
2022-10-26T22:39:17.960Z,3.90
2022-10-26T22:42:19.474Z,3.58
2022-10-26T22:45:21.036Z,3.65
2022-10-26T22:48:22.553Z,3.30
2022-10-26T22:51:25.857Z,3.63
2022-10-26T22:54:27.428Z,3.63
2022-10-26T22:57:29.079Z,3.35
2022-10-26T23:00:30.628Z,3.20
2022-10-26T23:03:32.963Z,3.58
2022-10-26T23:06:34.728Z,3.40
2022-10-26T23:09:36.251Z,3.10
2022-10-26T23:12:37.986Z,3.33
2022-10-26T23:15:39.495Z,3.75
2022-10-26T23:18:45.835Z,3.60
2022-10-26T23:21:48.880Z,4.28
2022-10-26T23:24:50.458Z,3.95
2022-10-26T23:27:51.969Z,4.60
2022-10-26T23:30:53.738Z,4.38
2022-10-26T23:33:56.443Z,4.10
2022-10-26T23:36:57.992Z,4.72
2022-10-26T23:39:59.512Z,4.00
2022-10-26T23:43:01.231Z,4.32
2022-10-26T23:46:04.501Z,4.43
2022-10-26T23:49:06.068Z,7.07
2022-10-26T23:52:07.576Z,4.93
2022-10-26T23:55:09.347Z,4.38
2022-10-26T23:58:11.747Z,4.10
